New York, New York
Traffic Map
Current Weather Conditions
New York, New York
Clear
Clear
86°
Feels Like: 86°
Wind Chill: 86° Ceiling: Unl
Heat Index: 86° Visibility: 7mi
Dew Point: 55° Wind: 3mph
Humidity: 35% Direction: ° ()
Pressure: 30.11in Gusts: 0mph
Raw Report DataKNYC 261551Z AUTO VRB03KT 7SM CLR 30/13 A3011 RMK AO2 SLP185 T03000128 $
Traffic Incident Summary
Active as of:
Severity:
Category:
InformationThere was an issue retrieving the traffic information for this location. Please try a different location or try again shortly.
Advertisements
Track Severe Weather on mobile